sensor_id;sensor_type;location;lat;lon;timestamp;P1;durP1;ratioP1;P2;durP2;ratioP2
45254;SDS011;30989;52.078;21.014;2022-08-19T00:00:48;11.40;;;6.68;;
45254;SDS011;30989;52.078;21.014;2022-08-19T00:03:13;11.55;;;7.25;;
45254;SDS011;30989;52.078;21.014;2022-08-19T00:05:39;10.07;;;6.63;;
45254;SDS011;30989;52.078;21.014;2022-08-19T00:08:06;10.68;;;7.10;;
45254;SDS011;30989;52.078;21.014;2022-08-19T00:10:32;15.55;;;7.57;;
45254;SDS011;30989;52.078;21.014;2022-08-19T00:12:59;18.67;;;7.28;;
45254;SDS011;30989;52.078;21.014;2022-08-19T00:15:24;13.20;;;7.15;;
45254;SDS011;30989;52.078;21.014;2022-08-19T00:17:50;14.40;;;8.57;;
45254;SDS011;30989;52.078;21.014;2022-08-19T00:20:17;14.30;;;6.97;;
45254;SDS011;30989;52.078;21.014;2022-08-19T00:22:44;12.10;;;6.68;;
45254;SDS011;30989;52.078;21.014;2022-08-19T00:25:12;13.98;;;7.22;;
45254;SDS011;30989;52.078;21.014;2022-08-19T00:27:38;15.60;;;7.20;;
45254;SDS011;30989;52.078;21.014;2022-08-19T00:30:07;11.02;;;7.40;;
45254;SDS011;30989;52.078;21.014;2022-08-19T00:32:35;15.40;;;6.80;;
45254;SDS011;30989;52.078;21.014;2022-08-19T00:35:01;16.83;;;7.53;;
45254;SDS011;30989;52.078;21.014;2022-08-19T00:37:26;16.65;;;6.82;;
45254;SDS011;30989;52.078;21.014;2022-08-19T00:39:53;14.07;;;7.85;;
45254;SDS011;30989;52.078;21.014;2022-08-19T00:42:20;11.52;;;7.05;;
45254;SDS011;30989;52.078;21.014;2022-08-19T00:44:46;11.52;;;6.82;;
45254;SDS011;30989;52.078;21.014;2022-08-19T00:47:12;12.98;;;7.90;;
45254;SDS011;30989;52.078;21.014;2022-08-19T00:49:45;14.68;;;7.88;;
45254;SDS011;30989;52.078;21.014;2022-08-19T00:52:17;15.07;;;6.93;;
45254;SDS011;30989;52.078;21.014;2022-08-19T00:54:47;11.63;;;7.28;;
45254;SDS011;30989;52.078;21.014;2022-08-19T00:57:15;12.27;;;7.40;;
45254;SDS011;30989;52.078;21.014;2022-08-19T00:59:44;17.27;;;6.97;;
45254;SDS011;30989;52.078;21.014;2022-08-19T01:02:13;12.07;;;6.82;;
45254;SDS011;30989;52.078;21.014;2022-08-19T01:04:40;10.32;;;7.05;;
45254;SDS011;30989;52.078;21.014;2022-08-19T01:07:05;11.30;;;7.13;;
45254;SDS011;30989;52.078;21.014;2022-08-19T01:09:31;15.70;;;7.78;;
45254;SDS011;30989;52.078;21.014;2022-08-19T01:11:57;15.40;;;7.50;;
45254;SDS011;30989;52.078;21.014;2022-08-19T01:14:23;11.88;;;7.45;;
45254;SDS011;30989;52.078;21.014;2022-08-19T01:16:49;12.68;;;7.30;;
45254;SDS011;30989;52.078;21.014;2022-08-19T01:22:01;13.50;;;7.53;;
45254;SDS011;30989;52.078;21.014;2022-08-19T01:24:30;12.90;;;7.30;;
45254;SDS011;30989;52.078;21.014;2022-08-19T01:26:56;19.30;;;7.80;;
45254;SDS011;30989;52.078;21.014;2022-08-19T01:29:22;11.55;;;7.18;;
45254;SDS011;30989;52.078;21.014;2022-08-19T01:31:48;14.77;;;8.13;;
45254;SDS011;30989;52.078;21.014;2022-08-19T01:34:18;14.52;;;7.80;;
45254;SDS011;30989;52.078;21.014;2022-08-19T01:36:45;12.27;;;7.45;;
45254;SDS011;30989;52.078;21.014;2022-08-19T01:39:17;14.85;;;6.53;;
45254;SDS011;30989;52.078;21.014;2022-08-19T01:41:46;10.73;;;7.00;;
45254;SDS011;30989;52.078;21.014;2022-08-19T01:44:13;18.15;;;7.35;;
45254;SDS011;30989;52.078;21.014;2022-08-19T01:46:41;14.82;;;8.07;;
45254;SDS011;30989;52.078;21.014;2022-08-19T01:49:07;14.73;;;7.70;;
45254;SDS011;30989;52.078;21.014;2022-08-19T01:51:33;12.90;;;8.05;;
45254;SDS011;30989;52.078;21.014;2022-08-19T01:53:59;17.65;;;7.70;;
45254;SDS011;30989;52.078;21.014;2022-08-19T01:56:26;10.55;;;7.13;;
45254;SDS011;30989;52.078;21.014;2022-08-19T01:58:56;13.07;;;7.45;;
45254;SDS011;30989;52.078;21.014;2022-08-19T02:01:28;13.43;;;7.55;;
45254;SDS011;30989;52.078;21.014;2022-08-19T02:03:57;15.23;;;8.07;;
45254;SDS011;30989;52.078;21.014;2022-08-19T02:06:26;10.05;;;6.70;;
45254;SDS011;30989;52.078;21.014;2022-08-19T02:08:52;15.13;;;8.77;;
45254;SDS011;30989;52.078;21.014;2022-08-19T02:11:22;11.18;;;7.28;;
45254;SDS011;30989;52.078;21.014;2022-08-19T02:13:51;11.13;;;6.45;;
45254;SDS011;30989;52.078;21.014;2022-08-19T02:16:18;24.10;;;8.30;;
45254;SDS011;30989;52.078;21.014;2022-08-19T02:18:45;14.50;;;8.55;;
45254;SDS011;30989;52.078;21.014;2022-08-19T02:21:14;13.73;;;6.97;;
45254;SDS011;30989;52.078;21.014;2022-08-19T02:23:41;13.80;;;7.50;;
45254;SDS011;30989;52.078;21.014;2022-08-19T02:26:07;16.30;;;7.70;;
45254;SDS011;30989;52.078;21.014;2022-08-19T02:28:33;12.07;;;7.45;;
45254;SDS011;30989;52.078;21.014;2022-08-19T02:30:58;15.23;;;8.50;;
45254;SDS011;30989;52.078;21.014;2022-08-19T02:33:25;13.77;;;7.63;;
45254;SDS011;30989;52.078;21.014;2022-08-19T02:35:51;15.02;;;8.23;;
45254;SDS011;30989;52.078;21.014;2022-08-19T02:38:17;11.38;;;7.80;;
45254;SDS011;30989;52.078;21.014;2022-08-19T02:40:53;12.15;;;7.68;;
45254;SDS011;30989;52.078;21.014;2022-08-19T02:43:23;16.77;;;9.45;;
45254;SDS011;30989;52.078;21.014;2022-08-19T02:45:51;10.68;;;6.75;;
45254;SDS011;30989;52.078;21.014;2022-08-19T02:48:17;16.60;;;10.10;;
45254;SDS011;30989;52.078;21.014;2022-08-19T02:50:45;13.70;;;7.93;;
45254;SDS011;30989;52.078;21.014;2022-08-19T02:53:11;13.18;;;8.38;;
45254;SDS011;30989;52.078;21.014;2022-08-19T02:55:42;12.57;;;8.45;;
45254;SDS011;30989;52.078;21.014;2022-08-19T02:58:10;17.15;;;8.73;;
45254;SDS011;30989;52.078;21.014;2022-08-19T03:00:35;15.57;;;8.52;;
45254;SDS011;30989;52.078;21.014;2022-08-19T03:03:01;11.70;;;7.53;;
45254;SDS011;30989;52.078;21.014;2022-08-19T03:05:26;11.52;;;7.47;;
45254;SDS011;30989;52.078;21.014;2022-08-19T03:07:52;13.80;;;8.50;;
45254;SDS011;30989;52.078;21.014;2022-08-19T03:10:18;13.25;;;8.07;;
45254;SDS011;30989;52.078;21.014;2022-08-19T03:12:43;18.00;;;8.82;;
45254;SDS011;30989;52.078;21.014;2022-08-19T03:15:11;14.82;;;8.75;;
45254;SDS011;30989;52.078;21.014;2022-08-19T03:17:36;11.00;;;7.10;;
45254;SDS011;30989;52.078;21.014;2022-08-19T03:20:02;15.40;;;8.02;;
45254;SDS011;30989;52.078;21.014;2022-08-19T03:22:29;14.15;;;7.93;;
45254;SDS011;30989;52.078;21.014;2022-08-19T03:24:55;16.88;;;8.60;;
45254;SDS011;30989;52.078;21.014;2022-08-19T03:27:20;14.15;;;7.82;;
45254;SDS011;30989;52.078;21.014;2022-08-19T03:29:46;12.43;;;7.53;;
45254;SDS011;30989;52.078;21.014;2022-08-19T03:32:12;12.45;;;8.80;;
45254;SDS011;30989;52.078;21.014;2022-08-19T03:34:37;13.32;;;8.52;;
45254;SDS011;30989;52.078;21.014;2022-08-19T03:37:06;13.95;;;8.10;;
45254;SDS011;30989;52.078;21.014;2022-08-19T03:39:35;15.75;;;8.30;;
45254;SDS011;30989;52.078;21.014;2022-08-19T03:42:02;14.10;;;7.55;;
45254;SDS011;30989;52.078;21.014;2022-08-19T03:44:28;18.33;;;8.27;;
45254;SDS011;30989;52.078;21.014;2022-08-19T03:46:56;14.10;;;7.65;;
45254;SDS011;30989;52.078;21.014;2022-08-19T03:49:23;12.95;;;7.38;;
45254;SDS011;30989;52.078;21.014;2022-08-19T03:51:52;18.10;;;8.40;;
45254;SDS011;30989;52.078;21.014;2022-08-19T03:54:19;14.35;;;8.13;;
45254;SDS011;30989;52.078;21.014;2022-08-19T03:56:49;21.77;;;8.70;;
45254;SDS011;30989;52.078;21.014;2022-08-19T03:59:20;16.30;;;8.63;;
45254;SDS011;30989;52.078;21.014;2022-08-19T04:01:51;18.30;;;8.35;;
45254;SDS011;30989;52.078;21.014;2022-08-19T04:04:17;13.30;;;8.20;;
45254;SDS011;30989;52.078;21.014;2022-08-19T04:06:43;13.98;;;8.05;;
45254;SDS011;30989;52.078;21.014;2022-08-19T04:09:10;15.57;;;8.70;;
45254;SDS011;30989;52.078;21.014;2022-08-19T04:11:37;11.48;;;7.97;;
45254;SDS011;30989;52.078;21.014;2022-08-19T04:14:07;14.52;;;8.70;;
45254;SDS011;30989;52.078;21.014;2022-08-19T04:16:34;14.25;;;8.55;;
45254;SDS011;30989;52.078;21.014;2022-08-19T04:19:00;15.40;;;8.60;;
45254;SDS011;30989;52.078;21.014;2022-08-19T04:21:28;15.77;;;8.80;;
45254;SDS011;30989;52.078;21.014;2022-08-19T04:23:54;13.50;;;8.95;;
45254;SDS011;30989;52.078;21.014;2022-08-19T04:26:21;18.42;;;10.02;;
45254;SDS011;30989;52.078;21.014;2022-08-19T04:28:50;13.93;;;9.75;;
45254;SDS011;30989;52.078;21.014;2022-08-19T04:31:21;16.80;;;7.88;;
45254;SDS011;30989;52.078;21.014;2022-08-19T04:33:51;16.23;;;8.23;;
45254;SDS011;30989;52.078;21.014;2022-08-19T04:36:19;16.63;;;9.52;;
45254;SDS011;30989;52.078;21.014;2022-08-19T04:38:47;16.60;;;9.10;;
45254;SDS011;30989;52.078;21.014;2022-08-19T04:41:13;15.57;;;8.20;;
45254;SDS011;30989;52.078;21.014;2022-08-19T04:43:58;16.73;;;7.97;;
45254;SDS011;30989;52.078;21.014;2022-08-19T04:46:23;20.92;;;9.48;;
45254;SDS011;30989;52.078;21.014;2022-08-19T04:48:50;14.85;;;8.68;;
45254;SDS011;30989;52.078;21.014;2022-08-19T04:51:15;18.20;;;8.80;;
45254;SDS011;30989;52.078;21.014;2022-08-19T04:53:42;21.10;;;9.07;;
45254;SDS011;30989;52.078;21.014;2022-08-19T04:56:12;15.40;;;9.50;;
45254;SDS011;30989;52.078;21.014;2022-08-19T04:58:41;16.63;;;7.32;;
45254;SDS011;30989;52.078;21.014;2022-08-19T05:01:11;13.50;;;7.18;;
45254;SDS011;30989;52.078;21.014;2022-08-19T05:03:43;16.38;;;7.93;;
45254;SDS011;30989;52.078;21.014;2022-08-19T05:06:09;13.20;;;8.40;;
45254;SDS011;30989;52.078;21.014;2022-08-19T05:08:37;13.63;;;8.88;;
45254;SDS011;30989;52.078;21.014;2022-08-19T05:11:13;16.50;;;7.95;;
45254;SDS011;30989;52.078;21.014;2022-08-19T05:13:43;15.88;;;7.85;;
45254;SDS011;30989;52.078;21.014;2022-08-19T05:16:11;12.00;;;7.90;;
45254;SDS011;30989;52.078;21.014;2022-08-19T05:18:38;17.27;;;8.75;;
45254;SDS011;30989;52.078;21.014;2022-08-19T05:21:23;12.77;;;7.68;;
45254;SDS011;30989;52.078;21.014;2022-08-19T05:24:08;20.38;;;8.55;;
45254;SDS011;30989;52.078;21.014;2022-08-19T05:26:37;15.15;;;8.70;;
45254;SDS011;30989;52.078;21.014;2022-08-19T05:29:05;10.43;;;7.20;;
45254;SDS011;30989;52.078;21.014;2022-08-19T05:31:32;17.80;;;7.72;;
45254;SDS011;30989;52.078;21.014;2022-08-19T05:33:59;19.52;;;9.65;;
45254;SDS011;30989;52.078;21.014;2022-08-19T05:36:25;15.65;;;7.70;;
45254;SDS011;30989;52.078;21.014;2022-08-19T05:38:52;23.20;;;9.27;;
45254;SDS011;30989;52.078;21.014;2022-08-19T05:41:18;14.55;;;8.13;;
45254;SDS011;30989;52.078;21.014;2022-08-19T05:43:45;14.38;;;7.25;;
45254;SDS011;30989;52.078;21.014;2022-08-19T05:46:15;13.95;;;7.63;;
45254;SDS011;30989;52.078;21.014;2022-08-19T05:48:43;17.65;;;7.90;;
45254;SDS011;30989;52.078;21.014;2022-08-19T05:51:09;15.18;;;7.80;;
45254;SDS011;30989;52.078;21.014;2022-08-19T05:53:35;13.27;;;7.38;;
45254;SDS011;30989;52.078;21.014;2022-08-19T05:56:08;9.88;;;6.13;;
45254;SDS011;30989;52.078;21.014;2022-08-19T05:58:37;13.43;;;7.45;;
45254;SDS011;30989;52.078;21.014;2022-08-19T06:01:03;18.20;;;8.00;;
45254;SDS011;30989;52.078;21.014;2022-08-19T06:03:34;16.02;;;7.80;;
45254;SDS011;30989;52.078;21.014;2022-08-19T06:06:02;11.73;;;7.55;;
45254;SDS011;30989;52.078;21.014;2022-08-19T06:08:28;11.70;;;7.00;;
45254;SDS011;30989;52.078;21.014;2022-08-19T06:10:54;13.63;;;7.30;;
45254;SDS011;30989;52.078;21.014;2022-08-19T06:13:20;9.90;;;6.80;;
45254;SDS011;30989;52.078;21.014;2022-08-19T06:15:48;17.33;;;7.70;;
45254;SDS011;30989;52.078;21.014;2022-08-19T06:18:14;17.02;;;7.68;;
45254;SDS011;30989;52.078;21.014;2022-08-19T06:20:40;14.68;;;7.30;;
45254;SDS011;30989;52.078;21.014;2022-08-19T06:23:06;16.27;;;8.32;;
45254;SDS011;30989;52.078;21.014;2022-08-19T06:25:33;15.85;;;7.90;;
45254;SDS011;30989;52.078;21.014;2022-08-19T06:27:58;17.10;;;8.75;;
45254;SDS011;30989;52.078;21.014;2022-08-19T06:30:24;18.08;;;8.15;;
45254;SDS011;30989;52.078;21.014;2022-08-19T06:32:49;13.90;;;7.07;;
45254;SDS011;30989;52.078;21.014;2022-08-19T06:35:15;15.82;;;7.53;;
45254;SDS011;30989;52.078;21.014;2022-08-19T06:37:41;12.98;;;6.78;;
45254;SDS011;30989;52.078;21.014;2022-08-19T06:40:07;12.20;;;6.50;;
45254;SDS011;30989;52.078;21.014;2022-08-19T06:42:35;14.52;;;6.93;;
45254;SDS011;30989;52.078;21.014;2022-08-19T06:45:03;14.50;;;7.93;;
45254;SDS011;30989;52.078;21.014;2022-08-19T06:47:29;10.77;;;7.00;;
45254;SDS011;30989;52.078;21.014;2022-08-19T06:49:57;14.25;;;7.40;;
45254;SDS011;30989;52.078;21.014;2022-08-19T06:52:29;11.80;;;7.25;;
45254;SDS011;30989;52.078;21.014;2022-08-19T06:55:01;10.13;;;6.82;;
45254;SDS011;30989;52.078;21.014;2022-08-19T06:57:27;10.48;;;6.90;;
45254;SDS011;30989;52.078;21.014;2022-08-19T06:59:57;17.27;;;8.40;;
45254;SDS011;30989;52.078;21.014;2022-08-19T07:02:25;17.13;;;7.65;;
45254;SDS011;30989;52.078;21.014;2022-08-19T07:04:51;19.20;;;7.63;;
45254;SDS011;30989;52.078;21.014;2022-08-19T07:07:18;9.50;;;7.00;;
45254;SDS011;30989;52.078;21.014;2022-08-19T07:09:45;14.02;;;7.10;;
45254;SDS011;30989;52.078;21.014;2022-08-19T07:12:12;10.77;;;6.70;;
45254;SDS011;30989;52.078;21.014;2022-08-19T07:14:40;13.90;;;7.38;;
45254;SDS011;30989;52.078;21.014;2022-08-19T07:17:09;12.57;;;7.43;;
45254;SDS011;30989;52.078;21.014;2022-08-19T07:19:36;14.95;;;6.93;;
45254;SDS011;30989;52.078;21.014;2022-08-19T07:22:06;15.15;;;7.32;;
45254;SDS011;30989;52.078;21.014;2022-08-19T07:24:32;12.07;;;7.55;;
45254;SDS011;30989;52.078;21.014;2022-08-19T07:26:59;10.73;;;5.93;;
45254;SDS011;30989;52.078;21.014;2022-08-19T07:29:27;13.60;;;7.35;;
45254;SDS011;30989;52.078;21.014;2022-08-19T07:31:55;10.80;;;7.20;;
45254;SDS011;30989;52.078;21.014;2022-08-19T07:34:22;10.43;;;6.53;;
45254;SDS011;30989;52.078;21.014;2022-08-19T07:36:48;15.90;;;6.63;;
45254;SDS011;30989;52.078;21.014;2022-08-19T07:39:29;10.82;;;6.18;;
45254;SDS011;30989;52.078;21.014;2022-08-19T07:42:00;12.43;;;6.45;;
45254;SDS011;30989;52.078;21.014;2022-08-19T07:44:27;12.20;;;6.43;;
45254;SDS011;30989;52.078;21.014;2022-08-19T07:46:54;8.27;;;5.65;;
45254;SDS011;30989;52.078;21.014;2022-08-19T07:49:21;11.82;;;6.00;;
45254;SDS011;30989;52.078;21.014;2022-08-19T07:51:49;15.68;;;6.05;;
45254;SDS011;30989;52.078;21.014;2022-08-19T07:54:17;25.98;;;8.40;;
45254;SDS011;30989;52.078;21.014;2022-08-19T07:56:45;9.10;;;6.03;;
45254;SDS011;30989;52.078;21.014;2022-08-19T07:59:10;17.27;;;6.45;;
45254;SDS011;30989;52.078;21.014;2022-08-19T08:01:37;20.33;;;6.10;;
45254;SDS011;30989;52.078;21.014;2022-08-19T08:04:05;15.57;;;6.55;;
45254;SDS011;30989;52.078;21.014;2022-08-19T08:06:50;12.80;;;5.82;;
45254;SDS011;30989;52.078;21.014;2022-08-19T08:09:36;9.27;;;5.70;;
45254;SDS011;30989;52.078;21.014;2022-08-19T08:12:38;15.25;;;6.50;;
45254;SDS011;30989;52.078;21.014;2022-08-19T08:14:59;10.90;;;6.20;;
45254;SDS011;30989;52.078;21.014;2022-08-19T08:17:27;9.23;;;5.57;;
45254;SDS011;30989;52.078;21.014;2022-08-19T08:19:57;10.75;;;6.85;;
45254;SDS011;30989;52.078;21.014;2022-08-19T08:22:23;10.35;;;6.03;;
45254;SDS011;30989;52.078;21.014;2022-08-19T08:25:12;11.73;;;5.60;;
45254;SDS011;30989;52.078;21.014;2022-08-19T08:27:43;10.77;;;5.82;;
45254;SDS011;30989;52.078;21.014;2022-08-19T08:30:11;18.05;;;5.80;;
45254;SDS011;30989;52.078;21.014;2022-08-19T08:32:41;13.18;;;5.20;;
45254;SDS011;30989;52.078;21.014;2022-08-19T08:35:08;10.32;;;5.63;;
45254;SDS011;30989;52.078;21.014;2022-08-19T08:37:36;11.13;;;5.43;;
45254;SDS011;30989;52.078;21.014;2022-08-19T08:40:21;11.95;;;4.95;;
45254;SDS011;30989;52.078;21.014;2022-08-19T08:42:51;8.75;;;4.65;;
45254;SDS011;30989;52.078;21.014;2022-08-19T08:45:48;12.63;;;5.78;;
45254;SDS011;30989;52.078;21.014;2022-08-19T08:48:24;10.82;;;5.82;;
45254;SDS011;30989;52.078;21.014;2022-08-19T08:50:59;9.77;;;5.53;;
45254;SDS011;30989;52.078;21.014;2022-08-19T08:53:28;6.40;;;4.75;;
45254;SDS011;30989;52.078;21.014;2022-08-19T08:55:55;10.13;;;5.13;;
45254;SDS011;30989;52.078;21.014;2022-08-19T08:58:26;13.88;;;6.32;;
45254;SDS011;30989;52.078;21.014;2022-08-19T09:01:11;10.63;;;6.20;;
45254;SDS011;30989;52.078;21.014;2022-08-19T09:03:37;7.40;;;4.88;;
45254;SDS011;30989;52.078;21.014;2022-08-19T09:06:18;7.78;;;4.72;;
45254;SDS011;30989;52.078;21.014;2022-08-19T09:12:27;9.75;;;4.90;;
45254;SDS011;30989;52.078;21.014;2022-08-19T09:17:22;9.10;;;4.63;;
45254;SDS011;30989;52.078;21.014;2022-08-19T09:19:54;9.02;;;5.25;;
45254;SDS011;30989;52.078;21.014;2022-08-19T09:22:27;10.75;;;6.07;;
45254;SDS011;30989;52.078;21.014;2022-08-19T09:24:53;10.27;;;5.18;;
45254;SDS011;30989;52.078;21.014;2022-08-19T09:27:20;13.10;;;6.13;;
45254;SDS011;30989;52.078;21.014;2022-08-19T09:29:49;10.15;;;5.32;;
45254;SDS011;30989;52.078;21.014;2022-08-19T09:32:15;8.68;;;5.13;;
45254;SDS011;30989;52.078;21.014;2022-08-19T09:34:42;9.77;;;4.93;;
45254;SDS011;30989;52.078;21.014;2022-08-19T09:37:08;11.45;;;5.57;;
45254;SDS011;30989;52.078;21.014;2022-08-19T09:39:34;7.60;;;4.18;;
45254;SDS011;30989;52.078;21.014;2022-08-19T09:41:59;13.05;;;5.00;;
45254;SDS011;30989;52.078;21.014;2022-08-19T09:44:25;11.05;;;5.78;;
45254;SDS011;30989;52.078;21.014;2022-08-19T09:46:50;7.63;;;4.40;;
45254;SDS011;30989;52.078;21.014;2022-08-19T09:49:17;9.20;;;4.90;;
45254;SDS011;30989;52.078;21.014;2022-08-19T09:51:50;14.40;;;6.00;;
45254;SDS011;30989;52.078;21.014;2022-08-19T09:54:17;13.35;;;4.85;;
45254;SDS011;30989;52.078;21.014;2022-08-19T09:56:43;8.10;;;4.93;;
45254;SDS011;30989;52.078;21.014;2022-08-19T09:59:09;9.02;;;4.97;;
45254;SDS011;30989;52.078;21.014;2022-08-19T10:01:37;8.35;;;4.75;;
45254;SDS011;30989;52.078;21.014;2022-08-19T10:04:03;9.90;;;4.90;;
45254;SDS011;30989;52.078;21.014;2022-08-19T10:06:34;9.98;;;4.90;;
45254;SDS011;30989;52.078;21.014;2022-08-19T10:09:02;9.35;;;4.95;;
45254;SDS011;30989;52.078;21.014;2022-08-19T10:11:32;8.55;;;4.80;;
45254;SDS011;30989;52.078;21.014;2022-08-19T10:14:00;10.18;;;5.00;;
45254;SDS011;30989;52.078;21.014;2022-08-19T10:16:26;13.63;;;5.05;;
45254;SDS011;30989;52.078;21.014;2022-08-19T10:18:51;9.40;;;5.35;;
45254;SDS011;30989;52.078;21.014;2022-08-19T10:21:19;9.05;;;4.40;;
45254;SDS011;30989;52.078;21.014;2022-08-19T10:23:48;8.02;;;4.85;;
45254;SDS011;30989;52.078;21.014;2022-08-19T10:26:17;14.70;;;5.20;;
45254;SDS011;30989;52.078;21.014;2022-08-19T10:28:45;10.55;;;5.10;;
45254;SDS011;30989;52.078;21.014;2022-08-19T10:31:15;7.78;;;5.00;;
45254;SDS011;30989;52.078;21.014;2022-08-19T10:33:45;9.65;;;4.55;;
45254;SDS011;30989;52.078;21.014;2022-08-19T10:36:19;11.05;;;5.47;;
45254;SDS011;30989;52.078;21.014;2022-08-19T10:38:49;10.45;;;4.70;;
45254;SDS011;30989;52.078;21.014;2022-08-19T10:41:17;12.15;;;5.50;;
45254;SDS011;30989;52.078;21.014;2022-08-19T10:43:47;19.25;;;5.72;;
45254;SDS011;30989;52.078;21.014;2022-08-19T10:46:17;11.48;;;5.07;;
45254;SDS011;30989;52.078;21.014;2022-08-19T10:48:43;8.77;;;4.50;;
45254;SDS011;30989;52.078;21.014;2022-08-19T10:51:10;12.27;;;6.10;;
45254;SDS011;30989;52.078;21.014;2022-08-19T10:53:54;11.65;;;5.55;;
45254;SDS011;30989;52.078;21.014;2022-08-19T10:56:21;12.70;;;4.70;;
45254;SDS011;30989;52.078;21.014;2022-08-19T10:59:06;7.28;;;4.55;;
45254;SDS011;30989;52.078;21.014;2022-08-19T11:01:32;11.27;;;6.18;;
45254;SDS011;30989;52.078;21.014;2022-08-19T11:04:01;8.45;;;5.13;;
45254;SDS011;30989;52.078;21.014;2022-08-19T11:06:28;8.90;;;5.35;;
45254;SDS011;30989;52.078;21.014;2022-08-19T11:08:55;11.65;;;4.30;;
45254;SDS011;30989;52.078;21.014;2022-08-19T11:11:21;9.25;;;5.28;;
45254;SDS011;30989;52.078;21.014;2022-08-19T11:13:47;7.13;;;4.90;;
45254;SDS011;30989;52.078;21.014;2022-08-19T11:16:21;10.43;;;5.50;;
45254;SDS011;30989;52.078;21.014;2022-08-19T11:18:50;7.60;;;4.90;;
45254;SDS011;30989;52.078;21.014;2022-08-19T11:21:28;8.60;;;4.68;;
45254;SDS011;30989;52.078;21.014;2022-08-19T11:23:59;10.63;;;5.70;;
45254;SDS011;30989;52.078;21.014;2022-08-19T11:26:30;11.40;;;4.93;;
45254;SDS011;30989;52.078;21.014;2022-08-19T11:28:56;7.43;;;4.90;;
45254;SDS011;30989;52.078;21.014;2022-08-19T11:31:23;8.07;;;5.63;;
45254;SDS011;30989;52.078;21.014;2022-08-19T11:33:51;9.65;;;5.40;;
45254;SDS011;30989;52.078;21.014;2022-08-19T11:36:20;9.98;;;4.88;;
45254;SDS011;30989;52.078;21.014;2022-08-19T11:38:47;13.52;;;6.32;;
45254;SDS011;30989;52.078;21.014;2022-08-19T11:41:13;12.88;;;6.93;;
45254;SDS011;30989;52.078;21.014;2022-08-19T11:43:40;10.38;;;6.13;;
45254;SDS011;30989;52.078;21.014;2022-08-19T11:46:06;14.38;;;6.65;;
45254;SDS011;30989;52.078;21.014;2022-08-19T11:48:37;9.85;;;5.15;;
45254;SDS011;30989;52.078;21.014;2022-08-19T11:51:04;8.63;;;5.00;;
45254;SDS011;30989;52.078;21.014;2022-08-19T11:53:35;11.52;;;4.57;;
45254;SDS011;30989;52.078;21.014;2022-08-19T11:56:02;6.88;;;4.15;;
45254;SDS011;30989;52.078;21.014;2022-08-19T11:58:28;13.10;;;4.93;;
45254;SDS011;30989;52.078;21.014;2022-08-19T12:00:57;10.05;;;4.53;;
45254;SDS011;30989;52.078;21.014;2022-08-19T12:03:22;10.80;;;3.83;;
45254;SDS011;30989;52.078;21.014;2022-08-19T12:05:48;8.52;;;4.80;;
45254;SDS011;30989;52.078;21.014;2022-08-19T12:08:15;11.77;;;4.05;;
45254;SDS011;30989;52.078;21.014;2022-08-19T12:10:41;8.50;;;3.50;;
45254;SDS011;30989;52.078;21.014;2022-08-19T12:13:09;7.82;;;4.28;;
45254;SDS011;30989;52.078;21.014;2022-08-19T12:15:38;9.80;;;4.15;;
45254;SDS011;30989;52.078;21.014;2022-08-19T12:18:06;7.47;;;4.70;;
45254;SDS011;30989;52.078;21.014;2022-08-19T12:20:36;12.65;;;5.30;;
45254;SDS011;30989;52.078;21.014;2022-08-19T12:23:04;7.68;;;3.75;;
45254;SDS011;30989;52.078;21.014;2022-08-19T12:25:30;8.25;;;4.10;;
45254;SDS011;30989;52.078;21.014;2022-08-19T12:27:57;14.38;;;4.80;;
45254;SDS011;30989;52.078;21.014;2022-08-19T12:30:23;13.00;;;4.88;;
45254;SDS011;30989;52.078;21.014;2022-08-19T12:32:48;9.95;;;4.95;;
45254;SDS011;30989;52.078;21.014;2022-08-19T12:35:16;7.80;;;3.88;;
45254;SDS011;30989;52.078;21.014;2022-08-19T12:37:42;6.90;;;3.95;;
45254;SDS011;30989;52.078;21.014;2022-08-19T12:40:10;6.45;;;3.65;;
45254;SDS011;30989;52.078;21.014;2022-08-19T12:42:37;12.07;;;4.97;;
45254;SDS011;30989;52.078;21.014;2022-08-19T12:45:06;8.55;;;4.03;;
45254;SDS011;30989;52.078;21.014;2022-08-19T12:47:32;12.75;;;5.10;;
45254;SDS011;30989;52.078;21.014;2022-08-19T12:49:58;9.18;;;4.03;;
45254;SDS011;30989;52.078;21.014;2022-08-19T12:52:24;9.23;;;3.78;;
45254;SDS011;30989;52.078;21.014;2022-08-19T12:54:52;8.32;;;4.78;;
45254;SDS011;30989;52.078;21.014;2022-08-19T12:57:20;5.07;;;3.25;;
45254;SDS011;30989;52.078;21.014;2022-08-19T12:59:51;11.13;;;4.80;;
45254;SDS011;30989;52.078;21.014;2022-08-19T13:02:20;10.73;;;4.10;;
45254;SDS011;30989;52.078;21.014;2022-08-19T13:04:47;6.45;;;3.88;;
45254;SDS011;30989;52.078;21.014;2022-08-19T13:07:13;10.30;;;4.20;;
45254;SDS011;30989;52.078;21.014;2022-08-19T13:09:38;8.93;;;4.43;;
45254;SDS011;30989;52.078;21.014;2022-08-19T13:12:07;7.18;;;4.72;;
45254;SDS011;30989;52.078;21.014;2022-08-19T13:14:38;9.65;;;4.68;;
45254;SDS011;30989;52.078;21.014;2022-08-19T13:17:05;8.05;;;3.55;;
45254;SDS011;30989;52.078;21.014;2022-08-19T13:19:31;7.70;;;3.40;;
45254;SDS011;30989;52.078;21.014;2022-08-19T13:21:57;7.60;;;3.70;;
45254;SDS011;30989;52.078;21.014;2022-08-19T13:24:24;7.75;;;4.10;;
45254;SDS011;30989;52.078;21.014;2022-08-19T13:26:50;11.25;;;4.45;;
45254;SDS011;30989;52.078;21.014;2022-08-19T13:29:15;12.45;;;3.63;;
45254;SDS011;30989;52.078;21.014;2022-08-19T13:31:59;5.82;;;2.95;;
45254;SDS011;30989;52.078;21.014;2022-08-19T13:34:44;6.05;;;3.70;;
45254;SDS011;30989;52.078;21.014;2022-08-19T13:37:11;11.20;;;3.60;;
45254;SDS011;30989;52.078;21.014;2022-08-19T13:39:37;7.60;;;3.10;;
45254;SDS011;30989;52.078;21.014;2022-08-19T13:42:02;8.35;;;3.70;;
45254;SDS011;30989;52.078;21.014;2022-08-19T13:44:29;7.28;;;3.35;;
45254;SDS011;30989;52.078;21.014;2022-08-19T13:47:00;13.65;;;3.80;;
45254;SDS011;30989;52.078;21.014;2022-08-19T13:49:30;6.35;;;3.92;;
45254;SDS011;30989;52.078;21.014;2022-08-19T13:51:57;8.50;;;3.53;;
45254;SDS011;30989;52.078;21.014;2022-08-19T13:54:22;9.65;;;4.35;;
45254;SDS011;30989;52.078;21.014;2022-08-19T13:56:48;9.65;;;3.95;;
45254;SDS011;30989;52.078;21.014;2022-08-19T13:59:13;6.20;;;3.25;;
45254;SDS011;30989;52.078;21.014;2022-08-19T14:01:39;9.52;;;3.15;;
45254;SDS011;30989;52.078;21.014;2022-08-19T14:04:06;11.27;;;3.58;;
45254;SDS011;30989;52.078;21.014;2022-08-19T14:06:32;7.57;;;3.65;;
45254;SDS011;30989;52.078;21.014;2022-08-19T14:08:58;11.93;;;3.60;;
45254;SDS011;30989;52.078;21.014;2022-08-19T14:11:23;8.13;;;3.50;;
45254;SDS011;30989;52.078;21.014;2022-08-19T14:13:49;7.95;;;3.03;;
45254;SDS011;30989;52.078;21.014;2022-08-19T14:16:15;6.03;;;3.30;;
45254;SDS011;30989;52.078;21.014;2022-08-19T14:18:41;5.53;;;3.58;;
45254;SDS011;30989;52.078;21.014;2022-08-19T14:21:15;8.95;;;3.63;;
45254;SDS011;30989;52.078;21.014;2022-08-19T14:23:45;10.15;;;3.13;;
45254;SDS011;30989;52.078;21.014;2022-08-19T14:26:12;10.95;;;8.20;;
45254;SDS011;30989;52.078;21.014;2022-08-19T14:28:41;7.43;;;4.20;;
45254;SDS011;30989;52.078;21.014;2022-08-19T14:31:09;5.80;;;2.88;;
45254;SDS011;30989;52.078;21.014;2022-08-19T14:33:36;11.20;;;4.20;;
45254;SDS011;30989;52.078;21.014;2022-08-19T14:36:02;6.95;;;3.25;;
45254;SDS011;30989;52.078;21.014;2022-08-19T14:38:29;9.18;;;3.22;;
45254;SDS011;30989;52.078;21.014;2022-08-19T14:41:05;4.65;;;2.97;;